Sea Coast — WDC9153 — position and weather

sailwx.info

Track history (hours):
 
Tides and Currents Weather Stations Pressure Air Temp Water Temp Dewpoint Dewpoint Depression Visibility Wind Speed Wind Dir Waves Ship Positions

Sea Coast

Owner: Dann Marine Towing, LC, Chesapeake City, MD. More information available from US FCC via Universal Licensing System and Coast Guard Vessel Documentation Center.

Last reported at 2018-Jun-19 00:39 UTC. Time now 2018-Jun-21 18:13 UTC.
Position N 36°53' W 076°20'.

; draft 2.7 m.

Type: Tug. MMSI: 367098280.

Date/timePositionNaut miles runAvg speedWind from/ knotsBaromVisibWave heightAir tempDewpointWater temp
2018-Jun-19 00:39N 36°53' W 076°20'1 6.8
2018-Jun-19 00:30N 36°52' W 076°19'3 6.6
2018-Jun-19 00:00N 36°49' W 076°17'1 2.7
2018-Jun-18 23:30N 36°48' W 076°18'0 0.1
2018-Jun-18 23:01N 36°48' W 076°18'1 2.7
2018-Jun-18 22:30N 36°49' W 076°17'2 2.1
2018-Jun-18 21:46N 36°50' W 076°17'1 2.2
2018-Jun-18 21:29N 36°51' W 076°17'2 4.1
2018-Jun-18 21:00N 36°49' W 076°17'1 1.9
2018-Jun-18 20:30N 36°50' W 076°18'1 1.6
2018-Jun-18 19:52N 36°50' W 076°17'69 7.2
2018-Jun-18 10:16N 37°60' W 076°13'2 7.0
2018-Jun-18 10:00N 38°02' W 076°14'3 7.0
2018-Jun-18 09:30N 38°05' W 076°15'3 6.9
2018-Jun-18 09:01N 38°08' W 076°16'4 6.8
2018-Jun-18 08:29N 38°12' W 076°17'3 7.1
2018-Jun-18 08:00N 38°15' W 076°19'7 7.4
2018-Jun-18 07:04N 38°21' W 076°21'0 7.4
2018-Jun-18 07:00N 38°22' W 076°21'4 7.3
2018-Jun-18 06:30N 38°25' W 076°23'4 7.6
2018-Jun-18 06:01N 38°29' W 076°25'4 7.8
2018-Jun-18 05:30N 38°33' W 076°27'4 7.7
2018-Jun-18 05:00N 38°36' W 076°27'6 7.5
2018-Jun-18 04:16N 38°42' W 076°28'6 7.1
2018-Jun-18 03:24N 38°48' W 076°27'3 6.9
2018-Jun-18 02:57N 38°51' W 076°26'3 6.7
2018-Jun-18 02:30N 38°54' W 076°25'6 6.8
2018-Jun-18 01:40N 38°59' W 076°23'8 6.6
2018-Jun-18 00:29N 39°07' W 076°24'4 6.9
2018-Jun-17 23:53N 39°11' W 076°26'3 6.8
2018-Jun-17 23:29N 39°12' W 076°29'3 6.6
2018-Jun-17 23:00N 39°13' W 076°33'0 1.0
2018-Jun-17 22:31N 39°13' W 076°34'0 0.3
2018-Jun-17 22:00N 39°13' W 076°34'0 0.1
2018-Jun-17 21:25N 39°13' W 076°34'3 8.0
2018-Jun-17 21:00N 39°12' W 076°30'12 8.2
2018-Jun-17 19:32N 39°01' W 076°23'1 8.2
2018-Jun-17 19:27N 39°00' W 076°23'4 8.6
2018-Jun-17 19:00N 38°57' W 076°24'4 8.8
2018-Jun-17 18:30N 38°52' W 076°26'50 9.0
2018-Jun-17 12:53N 38°03' W 076°14'71 6.4
2018-Jun-17 01:48N 36°53' W 076°20'3 8.6
2018-Jun-17 01:30N 36°51' W 076°18'0 0.9
2018-Jun-17 00:57N 36°51' W 076°17'3 0.2
2018-Jun-16 06:04N 36°53' W 076°20'0 6.8
2018-Jun-16 06:00N 36°52' W 076°20'3 5.7
2018-Jun-16 05:29N 36°50' W 076°17'0 0.5
2018-Jun-16 04:44N 36°50' W 076°16'0 0.0
2018-Jun-16 04:15N 36°50' W 076°16'0 0.0
2018-Jun-16 03:57N 36°50' W 076°16'0 0.0
2018-Jun-15 23:43N 36°50' W 076°16'0 0.0
2018-Jun-15 23:23N 36°50' W 076°16'0 0.0
2018-Jun-15 20:56N 36°50' W 076°16'0 0.0
2018-Jun-15 20:27N 36°50' W 076°16'0 0.0
2018-Jun-15 20:00N 36°50' W 076°16'0 0.0
2018-Jun-15 19:30N 36°50' W 076°16'0 0.0
2018-Jun-15 19:00N 36°50' W 076°16'0 0.0
2018-Jun-15 18:31N 36°50' W 076°16'0 0.0
2018-Jun-15 18:00N 36°50' W 076°16'0 0.0
2018-Jun-15 17:30N 36°50' W 076°16'0 0.0
2018-Jun-15 17:01N 36°50' W 076°16'0 0.0
2018-Jun-15 16:31N 36°50' W 076°16'0 0.0
2018-Jun-15 16:01N 36°50' W 076°16'1 1.2
2018-Jun-15 15:21N 36°50' W 076°17'3 5.4
2018-Jun-15 14:48N 36°51' W 076°21'0 0.0
2018-Jun-14 12:41N 36°52' W 076°21'0 0.0
2018-Jun-14 12:13N 36°52' W 076°21'0 0.0
2018-Jun-14 11:55N 36°52' W 076°21'0 0.0
2018-Jun-14 11:26N 36°52' W 076°21'0 0.0
2018-Jun-14 10:31N 36°52' W 076°21'1 0.0
2018-Jun-13 12:34N 36°52' W 076°20'1 2.4
2018-Jun-13 12:14N 36°52' W 076°21'0 0.0
2018-Jun-13 11:24N 36°52' W 076°21'0 0.0
2018-Jun-13 11:00N 36°52' W 076°21'2 1.3
2018-Jun-13 09:32N 36°52' W 076°18'2 0.4
2018-Jun-13 03:59N 36°52' W 076°21'0 0.0
2018-Jun-13 00:43N 36°52' W 076°21'0 0.0
2018-Jun-13 00:22N 36°52' W 076°21'0 0.0
2018-Jun-12 19:23N 36°52' W 076°21'0 0.0
2018-Jun-11 23:43N 36°52' W 076°21'  
Track history (hours):
 
Tides and Currents Weather Stations Pressure Air Temp Water Temp Dewpoint Dewpoint Depression Visibility Wind Speed Wind Dir Waves Ship Positions

Sea Coast

Owner: Dann Marine Towing, LC, Chesapeake City, MD. More information available from US FCC via Universal Licensing System and Coast Guard Vessel Documentation Center.

Last reported at 2018-Jun-19 00:39 UTC. Time now 2018-Jun-21 18:13 UTC.
Position N 36°53' W 076°20'.

; draft 2.7 m.

Type: Tug. MMSI: 367098280.

Date/timePositionNaut miles runAvg speedWind from/ knotsBaromVisibWave heightAir tempDewpointWater temp
2018-Jun-19 00:39N 36°53' W 076°20'1 6.8
2018-Jun-19 00:30N 36°52' W 076°19'3 6.6
2018-Jun-19 00:00N 36°49' W 076°17'1 2.7
2018-Jun-18 23:30N 36°48' W 076°18'0 0.1
2018-Jun-18 23:01N 36°48' W 076°18'1 2.7
2018-Jun-18 22:30N 36°49' W 076°17'2 2.1
2018-Jun-18 21:46N 36°50' W 076°17'1 2.2
2018-Jun-18 21:29N 36°51' W 076°17'2 4.1
2018-Jun-18 21:00N 36°49' W 076°17'1 1.9
2018-Jun-18 20:30N 36°50' W 076°18'1 1.6
2018-Jun-18 19:52N 36°50' W 076°17'69 7.2
2018-Jun-18 10:16N 37°60' W 076°13'2 7.0
2018-Jun-18 10:00N 38°02' W 076°14'3 7.0
2018-Jun-18 09:30N 38°05' W 076°15'3 6.9
2018-Jun-18 09:01N 38°08' W 076°16'4 6.8
2018-Jun-18 08:29N 38°12' W 076°17'3 7.1
2018-Jun-18 08:00N 38°15' W 076°19'7 7.4
2018-Jun-18 07:04N 38°21' W 076°21'0 7.4
2018-Jun-18 07:00N 38°22' W 076°21'4 7.3
2018-Jun-18 06:30N 38°25' W 076°23'4 7.6
2018-Jun-18 06:01N 38°29' W 076°25'4 7.8
2018-Jun-18 05:30N 38°33' W 076°27'4 7.7
2018-Jun-18 05:00N 38°36' W 076°27'6 7.5
2018-Jun-18 04:16N 38°42' W 076°28'6 7.1
2018-Jun-18 03:24N 38°48' W 076°27'3 6.9
2018-Jun-18 02:57N 38°51' W 076°26'3 6.7
2018-Jun-18 02:30N 38°54' W 076°25'6 6.8
2018-Jun-18 01:40N 38°59' W 076°23'8 6.6
2018-Jun-18 00:29N 39°07' W 076°24'4 6.9
2018-Jun-17 23:53N 39°11' W 076°26'3 6.8
2018-Jun-17 23:29N 39°12' W 076°29'3 6.6
2018-Jun-17 23:00N 39°13' W 076°33'0 1.0
2018-Jun-17 22:31N 39°13' W 076°34'0 0.3
2018-Jun-17 22:00N 39°13' W 076°34'0 0.1
2018-Jun-17 21:25N 39°13' W 076°34'3 8.0
2018-Jun-17 21:00N 39°12' W 076°30'12 8.2
2018-Jun-17 19:32N 39°01' W 076°23'1 8.2
2018-Jun-17 19:27N 39°00' W 076°23'4 8.6
2018-Jun-17 19:00N 38°57' W 076°24'4 8.8
2018-Jun-17 18:30N 38°52' W 076°26'50 9.0
2018-Jun-17 12:53N 38°03' W 076°14'71 6.4
2018-Jun-17 01:48N 36°53' W 076°20'3 8.6
2018-Jun-17 01:30N 36°51' W 076°18'0 0.9
2018-Jun-17 00:57N 36°51' W 076°17'3 0.2
2018-Jun-16 06:04N 36°53' W 076°20'0 6.8
2018-Jun-16 06:00N 36°52' W 076°20'3 5.7
2018-Jun-16 05:29N 36°50' W 076°17'0 0.5
2018-Jun-16 04:44N 36°50' W 076°16'0 0.0
2018-Jun-16 04:15N 36°50' W 076°16'0 0.0
2018-Jun-16 03:57N 36°50' W 076°16'0 0.0
2018-Jun-15 23:43N 36°50' W 076°16'0 0.0
2018-Jun-15 23:23N 36°50' W 076°16'0 0.0
2018-Jun-15 20:56N 36°50' W 076°16'0 0.0
2018-Jun-15 20:27N 36°50' W 076°16'0 0.0
2018-Jun-15 20:00N 36°50' W 076°16'0 0.0
2018-Jun-15 19:30N 36°50' W 076°16'0 0.0
2018-Jun-15 19:00N 36°50' W 076°16'0 0.0
2018-Jun-15 18:31N 36°50' W 076°16'0 0.0
2018-Jun-15 18:00N 36°50' W 076°16'0 0.0
2018-Jun-15 17:30N 36°50' W 076°16'0 0.0
2018-Jun-15 17:01N 36°50' W 076°16'0 0.0
2018-Jun-15 16:31N 36°50' W 076°16'0 0.0
2018-Jun-15 16:01N 36°50' W 076°16'1 1.2
2018-Jun-15 15:21N 36°50' W 076°17'3 5.4
2018-Jun-15 14:48N 36°51' W 076°21'0 0.0
2018-Jun-14 12:41N 36°52' W 076°21'0 0.0
2018-Jun-14 12:13N 36°52' W 076°21'0 0.0
2018-Jun-14 11:55N 36°52' W 076°21'0 0.0
2018-Jun-14 11:26N 36°52' W 076°21'0 0.0
2018-Jun-14 10:31N 36°52' W 076°21'1 0.0
2018-Jun-13 12:34N 36°52' W 076°20'1 2.4
2018-Jun-13 12:14N 36°52' W 076°21'0 0.0
2018-Jun-13 11:24N 36°52' W 076°21'0 0.0
2018-Jun-13 11:00N 36°52' W 076°21'2 1.3
2018-Jun-13 09:32N 36°52' W 076°18'2 0.4
2018-Jun-13 03:59N 36°52' W 076°21'0 0.0
2018-Jun-13 00:43N 36°52' W 076°21'0 0.0
2018-Jun-13 00:22N 36°52' W 076°21'0 0.0
2018-Jun-12 19:23N 36°52' W 076°21'0 0.0
2018-Jun-11 23:43N 36°52' W 076°21'  

Dump ship's entire track history